Time;durP1;ratioP1;P1;durP2;ratioP2;P2;SDS_P1;SDS_P2;PMS_P1;PMS_P2;Temp;Humidity;BMP_temperature;BMP_pressure;BME280_temperature;BME280_humidity;BME280_pressure;Samples;Min_cycle;Max_cycle;Signal;HPM_P1;HPM_P2
2024/01/10 06:02:20;;;;;;;28.20;12.40;;;;;;;;;;5112868;23;20872;-74
2024/01/10 06:04:46;;;;;;;27.77;11.47;;;;;;;;;;5014200;28;20433;-74
2024/01/10 06:07:12;;;;;;;40.83;13.10;;;;;;;;;;5014002;28;20402;-74
2024/01/10 06:09:39;;;;;;;26.10;11.20;;;;;;;;;;5014181;28;20847;-74
2024/01/10 06:12:05;;;;;;;26.33;12.37;;;;;;;;;;4997876;28;20477;-74
2024/01/10 06:14:31;;;;;;;31.63;12.37;;;;;;;;;;4994578;28;20415;-74
2024/01/10 06:16:59;;;;;;;31.33;12.63;;;;;;;;;;4993131;28;20422;-75
2024/01/10 06:19:25;;;;;;;40.57;11.30;;;;;;;;;;4994346;28;20411;-76
2024/01/10 06:21:52;;;;;;;30.13;12.67;;;;;;;;;;4994181;28;20439;-76
2024/01/10 06:24:18;;;;;;;30.63;13.20;;;;;;;;;;4993968;28;20411;-73
2024/01/10 06:26:44;;;;;;;31.67;12.17;;;;;;;;;;4994074;28;20470;-74
2024/01/10 06:29:10;;;;;;;34.60;13.37;;;;;;;;;;4994093;28;20407;-74
2024/01/10 06:31:36;;;;;;;27.30;11.73;;;;;;;;;;4993984;28;20435;-73
2024/01/10 06:34:02;;;;;;;34.47;12.33;;;;;;;;;;4994185;28;20469;-73
2024/01/10 06:36:28;;;;;;;36.10;12.23;;;;;;;;;;4994040;28;20411;-73
2024/01/10 06:38:54;;;;;;;30.47;12.17;;;;;;;;;;4993534;28;20497;-73
2024/01/10 06:41:24;;;;;;;35.80;13.13;;;;;;;;;;4993451;28;20461;-74
2024/01/10 06:43:50;;;;;;;34.40;13.80;;;;;;;;;;4993618;28;20443;-73
2024/01/10 06:46:16;;;;;;;26.53;13.57;;;;;;;;;;4992198;28;20502;-73
2024/01/10 06:48:42;;;;;;;33.80;13.87;;;;;;;;;;4993913;28;20411;-73
2024/01/10 06:51:13;;;;;;;41.63;15.10;;;;;;;;;;4993767;28;20435;-74
2024/01/10 06:53:39;;;;;;;37.70;13.83;;;;;;;;;;4992629;28;20426;-73
2024/01/10 06:56:05;;;;;;;34.33;13.90;;;;;;;;;;4992315;28;20768;-73
2024/01/10 06:58:31;;;;;;;30.97;13.57;;;;;;;;;;4993568;28;20888;-74
2024/01/10 07:00:58;;;;;;;26.27;12.73;;;;;;;;;;4992088;28;20506;-73
2024/01/10 07:03:24;;;;;;;40.50;14.70;;;;;;;;;;4993853;28;20412;-74
2024/01/10 07:05:49;;;;;;;32.43;13.10;;;;;;;;;;4993395;28;20419;-73
2024/01/10 07:08:16;;;;;;;32.37;14.37;;;;;;;;;;5006135;28;20730;-74
2024/01/10 07:10:42;;;;;;;35.13;15.23;;;;;;;;;;5003027;28;20435;-74
2024/01/10 07:13:08;;;;;;;28.97;14.27;;;;;;;;;;5002971;28;20443;-74
2024/01/10 07:15:35;;;;;;;32.10;13.60;;;;;;;;;;4995294;28;20495;-73
2024/01/10 07:18:01;;;;;;;42.53;14.10;;;;;;;;;;4993936;28;20843;-74
2024/01/10 07:20:27;;;;;;;30.60;13.30;;;;;;;;;;4993128;28;20501;-74
2024/01/10 07:22:53;;;;;;;49.80;16.07;;;;;;;;;;4993025;28;20449;-74
2024/01/10 07:25:19;;;;;;;36.17;13.90;;;;;;;;;;4991496;28;20426;-74
2024/01/10 07:27:45;;;;;;;46.80;15.40;;;;;;;;;;4991696;28;20478;-74
2024/01/10 07:30:13;;;;;;;39.38;14.90;;;;;;;;;;4991849;28;20412;-74
2024/01/10 07:32:41;;;;;;;29.83;13.90;;;;;;;;;;4973681;28;20226;-74
2024/01/10 07:35:09;;;;;;;32.90;14.50;;;;;;;;;;4976352;28;20414;-73
2024/01/10 07:37:35;;;;;;;31.23;14.30;;;;;;;;;;4993034;28;20847;-73
2024/01/10 07:40:01;;;;;;;30.90;13.50;;;;;;;;;;4993500;28;20556;-73
2024/01/10 07:42:27;;;;;;;39.20;15.10;;;;;;;;;;4993716;28;20493;-76
2024/01/10 07:44:53;;;;;;;49.37;15.87;;;;;;;;;;4993014;28;20420;-77
2024/01/10 07:47:19;;;;;;;38.73;13.70;;;;;;;;;;4994533;28;20549;-73
2024/01/10 07:49:45;;;;;;;30.20;13.67;;;;;;;;;;4993413;28;20486;-74
2024/01/10 07:52:11;;;;;;;34.97;14.33;;;;;;;;;;4992672;28;20938;-74
2024/01/10 07:54:37;;;;;;;39.37;13.80;;;;;;;;;;4992477;28;20772;-74
2024/01/10 07:57:03;;;;;;;42.40;14.60;;;;;;;;;;4992553;28;20834;-73
2024/01/10 07:59:29;;;;;;;39.50;14.53;;;;;;;;;;4992712;28;20406;-74
2024/01/10 08:01:58;;;;;;;36.53;15.73;;;;;;;;;;4992299;28;20954;-73
2024/01/10 08:04:25;;;;;;;29.73;13.33;;;;;;;;;;4992257;28;20411;-73
2024/01/10 08:06:52;;;;;;;36.37;14.93;;;;;;;;;;4992665;28;20415;-74
2024/01/10 08:09:19;;;;;;;38.47;14.27;;;;;;;;;;4992530;28;20878;-74
2024/01/10 08:11:45;;;;;;;38.63;15.00;;;;;;;;;;4992038;28;20436;-75
2024/01/10 08:14:11;;;;;;;41.07;15.00;;;;;;;;;;4992280;28;20898;-74
2024/01/10 08:16:37;;;;;;;34.30;14.03;;;;;;;;;;4991020;28;20434;-74
2024/01/10 08:19:02;;;;;;;36.67;15.60;;;;;;;;;;4991370;28;20420;-74
2024/01/10 08:21:28;;;;;;;37.27;15.00;;;;;;;;;;4990418;28;20466;-75
2024/01/10 08:23:54;;;;;;;43.43;15.80;;;;;;;;;;4991935;28;20553;-74
2024/01/10 08:26:20;;;;;;;43.23;16.50;;;;;;;;;;4990618;28;20470;-73
2024/01/10 08:28:46;;;;;;;39.77;15.43;;;;;;;;;;4992427;28;20422;-73
2024/01/10 08:31:12;;;;;;;31.23;15.33;;;;;;;;;;4992113;28;20427;-73
2024/01/10 08:33:39;;;;;;;41.00;16.83;;;;;;;;;;4992249;28;20426;-76
2024/01/10 08:36:05;;;;;;;39.63;16.57;;;;;;;;;;4990933;28;20427;-75
2024/01/10 08:38:31;;;;;;;48.37;16.97;;;;;;;;;;4991097;28;20430;-75
2024/01/10 08:40:57;;;;;;;34.07;15.00;;;;;;;;;;4992359;28;20475;-74
2024/01/10 08:43:23;;;;;;;33.70;15.60;;;;;;;;;;4990754;28;20465;-75
2024/01/10 08:45:49;;;;;;;37.53;15.10;;;;;;;;;;4992225;28;20449;-74
2024/01/10 08:48:15;;;;;;;36.23;15.87;;;;;;;;;;4993186;28;20410;-79
2024/01/10 08:50:41;;;;;;;42.10;18.50;;;;;;;;;;4996792;28;20892;-77
2024/01/10 08:53:07;;;;;;;39.63;17.50;;;;;;;;;;4995974;28;20204;-76
2024/01/10 08:55:34;;;;;;;71.23;18.87;;;;;;;;;;4996842;28;20469;-75
2024/01/10 08:58:00;;;;;;;44.37;17.80;;;;;;;;;;4996208;28;20411;-75
2024/01/10 09:00:26;;;;;;;39.40;17.67;;;;;;;;;;4996257;28;20462;-75
2024/01/10 09:02:53;;;;;;;36.13;16.57;;;;;;;;;;4995520;28;20441;-72
2024/01/10 09:05:19;;;;;;;36.23;17.00;;;;;;;;;;4995464;28;20402;-74
2024/01/10 09:07:45;;;;;;;51.30;18.00;;;;;;;;;;4995755;28;20414;-76
2024/01/10 09:10:11;;;;;;;42.80;17.73;;;;;;;;;;4995974;28;20461;-74
2024/01/10 09:12:37;;;;;;;48.27;18.93;;;;;;;;;;4995409;28;20427;-73
2024/01/10 09:15:03;;;;;;;42.30;17.70;;;;;;;;;;4995506;28;20414;-74
2024/01/10 09:17:29;;;;;;;39.63;18.53;;;;;;;;;;4995450;28;20418;-73
2024/01/10 09:19:55;;;;;;;44.40;18.20;;;;;;;;;;4995387;28;20969;-72
2024/01/10 09:22:21;;;;;;;54.67;20.50;;;;;;;;;;4993627;28;20594;-72
2024/01/10 09:24:47;;;;;;;44.93;19.13;;;;;;;;;;4995009;28;20490;-73
2024/01/10 09:27:13;;;;;;;40.80;19.17;;;;;;;;;;4995408;28;20415;-74
2024/01/10 09:29:39;;;;;;;41.67;18.40;;;;;;;;;;4993870;28;20418;-73
2024/01/10 09:32:05;;;;;;;44.80;19.17;;;;;;;;;;4994973;28;20434;-73
2024/01/10 09:34:32;;;;;;;41.97;18.27;;;;;;;;;;4994865;28;20415;-73
2024/01/10 09:36:58;;;;;;;44.47;19.90;;;;;;;;;;4994869;28;20415;-73
2024/01/10 09:39:24;;;;;;;40.10;18.67;;;;;;;;;;4995674;28;20780;-74
2024/01/10 09:41:50;;;;;;;47.23;19.30;;;;;;;;;;4995140;28;20466;-73
2024/01/10 09:44:18;;;;;;;47.90;19.07;;;;;;;;;;4994564;28;20906;-72
2024/01/10 09:46:46;;;;;;;52.20;21.30;;;;;;;;;;4993630;28;20430;-73
2024/01/10 09:49:12;;;;;;;46.70;20.37;;;;;;;;;;4994847;28;20874;-73
2024/01/10 09:51:38;;;;;;;41.60;19.33;;;;;;;;;;4994533;28;20438;-72
2024/01/10 09:54:04;;;;;;;47.20;20.10;;;;;;;;;;4994746;28;20553;-71
2024/01/10 09:56:31;;;;;;;46.87;20.70;;;;;;;;;;4994913;28;20561;-72
2024/01/10 09:58:58;;;;;;;55.00;20.43;;;;;;;;;;4994773;28;20889;-73
2024/01/10 10:01:25;;;;;;;47.87;20.93;;;;;;;;;;4992645;28;20560;-72
2024/01/10 10:03:51;;;;;;;43.00;18.20;;;;;;;;;;4994762;28;20465;-72
2024/01/10 10:06:17;;;;;;;53.60;21.27;;;;;;;;;;4994406;28;20887;-72
2024/01/10 10:08:43;;;;;;;55.23;21.93;;;;;;;;;;4995087;28;20466;-71
2024/01/10 10:11:16;;;;;;;61.70;23.10;;;;;;;;;;4994533;28;20434;-75
2024/01/10 10:13:42;;;;;;;48.53;20.87;;;;;;;;;;4994664;28;20407;-73
2024/01/10 10:16:17;;;;;;;47.93;20.93;;;;;;;;;;4994431;28;20966;-73
2024/01/10 10:18:44;;;;;;;49.20;21.30;;;;;;;;;;4994017;28;20494;-73
2024/01/10 10:21:15;;;;;;;48.20;19.67;;;;;;;;;;4994148;28;20473;-73
2024/01/10 10:23:42;;;;;;;57.00;21.67;;;;;;;;;;4994041;28;20782;-74
2024/01/10 10:26:22;;;;;;;50.40;19.57;;;;;;;;;;4994287;28;20962;-75
2024/01/10 10:28:48;;;;;;;49.30;22.40;;;;;;;;;;4998165;28;20899;-75
2024/01/10 10:31:16;;;;;;;49.47;24.37;;;;;;;;;;5001723;28;20938;-73
2024/01/10 10:33:43;;;;;;;45.13;20.77;;;;;;;;;;5004447;28;20423;-74
2024/01/10 10:36:09;;;;;;;57.40;25.03;;;;;;;;;;4994196;28;20407;-74
2024/01/10 10:38:36;;;;;;;58.13;22.93;;;;;;;;;;4993275;28;20422;-73
2024/01/10 10:41:05;;;;;;;57.30;23.77;;;;;;;;;;4994125;28;20476;-75
2024/01/10 10:43:35;;;;;;;49.17;19.90;;;;;;;;;;4994149;28;20415;-73
2024/01/10 10:46:02;;;;;;;57.43;21.87;;;;;;;;;;4993507;28;20417;-74
2024/01/10 10:48:32;;;;;;;52.10;21.30;;;;;;;;;;4993709;28;20406;-73
2024/01/10 10:51:18;;;;;;;50.57;21.80;;;;;;;;;;4993668;28;20435;-74
2024/01/10 10:53:46;;;;;;;56.23;22.40;;;;;;;;;;4993514;28;20477;-76
2024/01/10 10:56:12;;;;;;;54.77;20.97;;;;;;;;;;4993653;28;20501;-73
2024/01/10 10:58:42;;;;;;;53.30;22.23;;;;;;;;;;4993655;28;20415;-73
2024/01/10 11:01:09;;;;;;;49.60;20.67;;;;;;;;;;4993498;28;20470;-73
2024/01/10 11:03:36;;;;;;;52.97;21.97;;;;;;;;;;4993782;28;20899;-72
2024/01/10 11:06:03;;;;;;;61.87;23.93;;;;;;;;;;4993188;28;20498;-72
2024/01/10 11:08:31;;;;;;;51.63;20.90;;;;;;;;;;4993810;28;20758;-74
2024/01/10 11:10:57;;;;;;;49.60;22.63;;;;;;;;;;4992742;28;20500;-74
2024/01/10 11:13:28;;;;;;;60.03;22.10;;;;;;;;;;4993272;28;20418;-74
2024/01/10 11:16:14;;;;;;;58.77;20.87;;;;;;;;;;4993485;28;20419;-75
2024/01/10 11:18:55;;;;;;;53.67;21.40;;;;;;;;;;4993304;28;20776;-73
2024/01/10 11:21:39;;;;;;;56.90;23.20;;;;;;;;;;4992778;28;21092;-75
2024/01/10 11:24:09;;;;;;;64.03;23.70;;;;;;;;;;4992877;28;20497;-75
2024/01/10 11:26:37;;;;;;;53.87;22.40;;;;;;;;;;4992908;28;20403;-74
2024/01/10 11:29:04;;;;;;;64.43;23.80;;;;;;;;;;4993046;28;20403;-74
2024/01/10 11:31:31;;;;;;;60.60;22.87;;;;;;;;;;4992733;28;20529;-73
2024/01/10 11:33:57;;;;;;;59.93;21.70;;;;;;;;;;4992640;28;20403;-73
2024/01/10 11:36:27;;;;;;;47.40;21.93;;;;;;;;;;4992535;28;20820;-74
2024/01/10 11:38:53;;;;;;;58.53;22.53;;;;;;;;;;4993183;28;21017;-74
2024/01/10 11:41:29;;;;;;;47.67;22.53;;;;;;;;;;4993388;28;21001;-73
2024/01/10 11:44:17;;;;;;;50.37;21.60;;;;;;;;;;4993403;28;20415;-76
2024/01/10 11:46:43;;;;;;;53.60;19.43;;;;;;;;;;4991045;28;20419;-73
2024/01/10 11:49:14;;;;;;;50.13;21.63;;;;;;;;;;4984290;28;20415;-75
2024/01/10 11:51:42;;;;;;;57.43;22.73;;;;;;;;;;4991912;28;20862;-74
2024/01/10 11:54:08;;;;;;;56.13;23.73;;;;;;;;;;4992527;28;20457;-74
2024/01/10 11:56:45;;;;;;;58.00;24.50;;;;;;;;;;4992881;28;20423;-74
2024/01/10 11:59:12;;;;;;;52.10;22.17;;;;;;;;;;5002075;28;20577;-72
2024/01/10 12:01:39;;;;;;;55.03;23.17;;;;;;;;;;4989571;28;20481;-74
2024/01/10 12:04:06;;;;;;;63.83;22.40;;;;;;;;;;4992857;28;20411;-74
2024/01/10 12:06:32;;;;;;;58.27;23.17;;;;;;;;;;4992640;28;20403;-72
2024/01/10 12:08:59;;;;;;;54.77;22.13;;;;;;;;;;4993336;28;20783;-76
2024/01/10 12:11:25;;;;;;;52.73;22.27;;;;;;;;;;5008088;28;20439;-74
2024/01/10 12:13:51;;;;;;;54.43;23.13;;;;;;;;;;4993512;28;20486;-72
2024/01/10 12:16:17;;;;;;;59.20;23.60;;;;;;;;;;4992348;28;20439;-72
2024/01/10 12:18:43;;;;;;;60.60;24.10;;;;;;;;;;4992345;28;20906;-73
2024/01/10 12:21:10;;;;;;;59.37;24.63;;;;;;;;;;4992225;28;20524;-73
2024/01/10 12:23:40;;;;;;;56.50;22.50;;;;;;;;;;5002506;28;20416;-73
2024/01/10 12:26:11;;;;;;;62.17;23.40;;;;;;;;;;4998776;28;20727;-73
2024/01/10 12:28:37;;;;;;;50.33;22.20;;;;;;;;;;4995360;28;20416;-73
2024/01/10 12:31:08;;;;;;;50.87;21.77;;;;;;;;;;4997237;28;20429;-73
2024/01/10 12:33:34;;;;;;;47.33;20.40;;;;;;;;;;4998508;28;20557;-72
2024/01/10 12:36:08;;;;;;;48.40;22.53;;;;;;;;;;4998176;28;20425;-72
2024/01/10 12:38:34;;;;;;;58.87;23.60;;;;;;;;;;4995067;28;20406;-74
2024/01/10 12:41:00;;;;;;;57.87;23.80;;;;;;;;;;4992956;28;20560;-74
2024/01/10 12:43:27;;;;;;;56.00;22.30;;;;;;;;;;4996269;28;20408;-72
2024/01/10 12:46:04;;;;;;;51.70;23.27;;;;;;;;;;4995924;28;20919;-73
2024/01/10 12:48:31;;;;;;;60.03;24.23;;;;;;;;;;4996013;28;20423;-73
2024/01/10 12:51:00;;;;;;;53.73;23.67;;;;;;;;;;4995666;28;20434;-73
2024/01/10 12:53:26;;;;;;;54.73;22.57;;;;;;;;;;4995905;28;20890;-73
2024/01/10 12:55:52;;;;;;;54.50;24.57;;;;;;;;;;4995520;28;20498;-73
2024/01/10 12:58:18;;;;;;;59.23;23.10;;;;;;;;;;4994267;28;20526;-73
2024/01/10 13:00:44;;;;;;;55.93;22.70;;;;;;;;;;4995315;28;20849;-74
2024/01/10 13:03:10;;;;;;;59.63;23.93;;;;;;;;;;4996137;28;20957;-72
2024/01/10 13:05:36;;;;;;;62.47;23.30;;;;;;;;;;4995469;28;20966;-74
2024/01/10 13:08:05;;;;;;;59.03;23.47;;;;;;;;;;4993890;28;20443;-73
2024/01/10 13:10:31;;;;;;;56.23;22.87;;;;;;;;;;4995233;28;20431;-73
2024/01/10 13:12:56;;;;;;;69.93;24.57;;;;;;;;;;4988899;28;20475;-74
2024/01/10 13:15:22;;;;;;;49.13;22.10;;;;;;;;;;4985242;28;20470;-74
2024/01/10 13:17:49;;;;;;;61.80;25.10;;;;;;;;;;4975705;28;20412;-73
2024/01/10 13:20:15;;;;;;;60.13;23.57;;;;;;;;;;4975901;28;21005;-74
2024/01/10 13:22:41;;;;;;;57.73;24.33;;;;;;;;;;4976058;28;20407;-73
2024/01/10 13:25:07;;;;;;;51.83;22.23;;;;;;;;;;4975384;28;20412;-73
2024/01/10 13:27:33;;;;;;;59.70;24.83;;;;;;;;;;4975158;28;20419;-73
2024/01/10 13:29:59;;;;;;;64.50;23.60;;;;;;;;;;4975729;28;20420;-74
2024/01/10 13:32:25;;;;;;;50.57;21.20;;;;;;;;;;4974016;28;20436;-73
2024/01/10 13:34:51;;;;;;;54.93;23.77;;;;;;;;;;4974397;28;20430;-73
2024/01/10 13:37:17;;;;;;;57.07;24.60;;;;;;;;;;4975478;28;20506;-73
2024/01/10 13:39:43;;;;;;;45.10;21.73;;;;;;;;;;4975272;28;20447;-74
2024/01/10 13:42:12;;;;;;;58.73;24.83;;;;;;;;;;4979326;28;20435;-74
2024/01/10 13:44:38;;;;;;;51.43;22.67;;;;;;;;;;4989949;28;20475;-73
2024/01/10 13:47:05;;;;;;;60.63;24.40;;;;;;;;;;4983704;28;20420;-73
2024/01/10 13:49:31;;;;;;;59.83;23.47;;;;;;;;;;4978070;28;20491;-74
2024/01/10 13:51:57;;;;;;;61.00;24.17;;;;;;;;;;4975091;28;20431;-73
2024/01/10 13:54:23;;;;;;;60.67;23.60;;;;;;;;;;4975300;28;20427;-73
2024/01/10 13:56:49;;;;;;;57.10;22.20;;;;;;;;;;4975493;28;20443;-74
2024/01/10 13:59:14;;;;;;;56.00;22.57;;;;;;;;;;4975160;28;20444;-73
2024/01/10 14:01:40;;;;;;;66.63;22.73;;;;;;;;;;4973534;28;20825;-73
2024/01/10 14:04:06;;;;;;;59.73;21.97;;;;;;;;;;4975091;28;20748;-74
2024/01/10 14:06:32;;;;;;;58.40;23.70;;;;;;;;;;4975352;28;20399;-74
2024/01/10 14:08:58;;;;;;;62.50;23.47;;;;;;;;;;4975002;28;20416;-73
2024/01/10 14:11:25;;;;;;;65.03;24.40;;;;;;;;;;4992942;28;20450;-75
2024/01/10 14:13:52;;;;;;;55.10;23.93;;;;;;;;;;4988120;28;20426;-75
2024/01/10 14:16:18;;;;;;;60.83;24.87;;;;;;;;;;4993584;28;20466;-75
2024/01/10 14:18:44;;;;;;;53.23;23.50;;;;;;;;;;4994540;28;20447;-77
2024/01/10 14:21:10;;;;;;;50.23;22.57;;;;;;;;;;4994632;28;20478;-80
2024/01/10 14:23:36;;;;;;;52.03;21.90;;;;;;;;;;4997318;28;20411;-73
2024/01/10 14:26:05;;;;;;;55.90;22.17;;;;;;;;;;4985977;28;20423;-75
2024/01/10 14:28:32;;;;;;;52.93;22.23;;;;;;;;;;4994393;28;20414;-73
2024/01/10 14:30:58;;;;;;;56.40;23.57;;;;;;;;;;4994656;28;20517;-76
2024/01/10 14:33:24;;;;;;;56.63;23.07;;;;;;;;;;4994103;28;20415;-73
2024/01/10 14:35:50;;;;;;;58.63;22.70;;;;;;;;;;4992435;28;20423;-72
2024/01/10 14:38:16;;;;;;;57.47;24.40;;;;;;;;;;4991925;28;20529;-71
2024/01/10 14:40:42;;;;;;;61.17;24.30;;;;;;;;;;4993748;28;20221;-71
2024/01/10 14:43:08;;;;;;;55.30;24.97;;;;;;;;;;4993982;28;20439;-72
2024/01/10 14:45:34;;;;;;;62.07;22.93;;;;;;;;;;4995892;28;20403;-74
2024/01/10 14:48:00;;;;;;;52.83;22.90;;;;;;;;;;4997499;28;20414;-74
2024/01/10 14:50:27;;;;;;;55.30;23.80;;;;;;;;;;4993662;28;20946;-73
2024/01/10 14:52:53;;;;;;;58.90;24.70;;;;;;;;;;4993352;28;20502;-73
2024/01/10 14:55:19;;;;;;;59.50;23.70;;;;;;;;;;4993133;28;20502;-73
2024/01/10 14:57:45;;;;;;;48.90;23.17;;;;;;;;;;4993355;28;20502;-72
2024/01/10 15:00:11;;;;;;;57.03;23.90;;;;;;;;;;4992946;28;20857;-72
2024/01/10 15:02:37;;;;;;;57.60;23.10;;;;;;;;;;4990393;28;20505;-73
2024/01/10 15:05:03;;;;;;;55.67;22.00;;;;;;;;;;4976519;28;20864;-73
2024/01/10 15:07:29;;;;;;;52.20;21.30;;;;;;;;;;4973852;28;20412;-72
2024/01/10 15:09:55;;;;;;;53.73;22.80;;;;;;;;;;4972690;28;20427;-70
2024/01/10 15:12:21;;;;;;;59.30;25.93;;;;;;;;;;4972344;28;20531;-71
2024/01/10 15:14:47;;;;;;;57.33;23.60;;;;;;;;;;4973557;28;20899;-72
2024/01/10 15:17:12;;;;;;;58.20;23.50;;;;;;;;;;4973515;28;21025;-71
2024/01/10 15:19:38;;;;;;;58.17;23.63;;;;;;;;;;4984453;28;20458;-71
2024/01/10 15:22:04;;;;;;;63.97;23.97;;;;;;;;;;4992884;28;20435;-72
2024/01/10 15:24:30;;;;;;;68.57;26.17;;;;;;;;;;4992948;28;20416;-72
2024/01/10 15:27:00;;;;;;;62.43;24.53;;;;;;;;;;4992941;28;20561;-72
2024/01/10 15:29:27;;;;;;;62.10;24.67;;;;;;;;;;4992845;28;20446;-72
2024/01/10 15:31:53;;;;;;;54.77;25.20;;;;;;;;;;4992745;28;20450;-72
2024/01/10 15:34:20;;;;;;;57.80;23.83;;;;;;;;;;4992619;28;20415;-72
2024/01/10 15:36:46;;;;;;;58.27;24.70;;;;;;;;;;4992748;28;20414;-72
2024/01/10 15:39:13;;;;;;;58.87;23.93;;;;;;;;;;4992836;28;20480;-70
2024/01/10 15:41:39;;;;;;;58.13;23.47;;;;;;;;;;4976173;28;20570;-71
2024/01/10 15:44:06;;;;;;;68.70;24.23;;;;;;;;;;4972468;28;20416;-72
2024/01/10 15:46:32;;;;;;;64.80;23.80;;;;;;;;;;4973146;28;20411;-71
2024/01/10 15:48:58;;;;;;;55.03;24.53;;;;;;;;;;4973086;28;20494;-72
2024/01/10 15:51:24;;;;;;;54.13;23.23;;;;;;;;;;4973084;28;20436;-71
2024/01/10 15:53:50;;;;;;;57.40;22.23;;;;;;;;;;4973248;28;20423;-71
2024/01/10 15:56:17;;;;;;;55.50;22.90;;;;;;;;;;4972783;28;20404;-71
2024/01/10 15:58:43;;;;;;;65.97;27.10;;;;;;;;;;4972529;28;20414;-71
2024/01/10 16:01:09;;;;;;;69.77;25.23;;;;;;;;;;4972802;28;20994;-71
2024/01/10 16:03:35;;;;;;;53.63;21.37;;;;;;;;;;4973256;28;20760;-71
2024/01/10 16:06:02;;;;;;;63.83;24.60;;;;;;;;;;4974536;28;20518;-72
2024/01/10 16:08:28;;;;;;;52.60;23.93;;;;;;;;;;4979366;28;20486;-72
2024/01/10 16:10:54;;;;;;;67.43;26.40;;;;;;;;;;4972935;28;20450;-72
2024/01/10 16:13:19;;;;;;;60.40;25.83;;;;;;;;;;4973302;28;20418;-71
2024/01/10 16:15:45;;;;;;;64.07;25.63;;;;;;;;;;4972940;28;20447;-71
2024/01/10 16:18:12;;;;;;;63.07;24.50;;;;;;;;;;4973100;28;20416;-71
2024/01/10 16:20:38;;;;;;;67.07;24.53;;;;;;;;;;4972886;28;20467;-71
2024/01/10 16:23:04;;;;;;;73.20;26.90;;;;;;;;;;4973189;28;20415;-72
2024/01/10 16:25:30;;;;;;;69.30;27.33;;;;;;;;;;4972980;28;20966;-71
2024/01/10 16:27:56;;;;;;;69.33;28.03;;;;;;;;;;4978196;28;20423;-72
2024/01/10 16:30:22;;;;;;;71.17;27.83;;;;;;;;;;4992288;28;20425;-72
2024/01/10 16:32:48;;;;;;;67.43;26.77;;;;;;;;;;4992667;28;20447;-70
2024/01/10 16:35:14;;;;;;;59.10;24.77;;;;;;;;;;4992314;28;20538;-70
2024/01/10 16:37:41;;;;;;;66.80;26.70;;;;;;;;;;4992569;28;20414;-70
2024/01/10 16:40:07;;;;;;;59.17;24.87;;;;;;;;;;4992272;28;20802;-71
2024/01/10 16:42:35;;;;;;;69.20;26.83;;;;;;;;;;4992261;28;20418;-71
2024/01/10 16:45:01;;;;;;;61.70;27.03;;;;;;;;;;4992123;28;20493;-71
2024/01/10 16:47:28;;;;;;;67.67;25.30;;;;;;;;;;4991035;28;20554;-71
2024/01/10 16:49:54;;;;;;;63.33;25.47;;;;;;;;;;4992347;28;20759;-71
2024/01/10 16:52:21;;;;;;;71.40;25.17;;;;;;;;;;4992060;28;20438;-71
2024/01/10 16:54:47;;;;;;;62.93;23.40;;;;;;;;;;4992166;28;20513;-71
2024/01/10 16:57:13;;;;;;;67.60;27.03;;;;;;;;;;5000027;28;20438;-71
2024/01/10 16:59:39;;;;;;;56.23;23.90;;;;;;;;;;4997345;28;20422;-71
2024/01/10 17:02:05;;;;;;;64.50;25.00;;;;;;;;;;4994903;28;20466;-72
2024/01/10 17:04:31;;;;;;;61.87;23.20;;;;;;;;;;4992226;28;20425;-71
2024/01/10 17:06:57;;;;;;;67.90;25.47;;;;;;;;;;4991947;28;20510;-71
2024/01/10 17:09:23;;;;;;;64.40;26.57;;;;;;;;;;4991789;28;20790;-72
2024/01/10 17:11:49;;;;;;;65.80;26.77;;;;;;;;;;4995280;28;20756;-72
2024/01/10 17:14:16;;;;;;;66.13;26.13;;;;;;;;;;4995527;28;20415;-71
2024/01/10 17:16:43;;;;;;;60.67;23.43;;;;;;;;;;4995506;28;20472;-72
2024/01/10 17:19:09;;;;;;;66.70;26.60;;;;;;;;;;4995774;28;20443;-73
2024/01/10 17:21:35;;;;;;;71.70;27.80;;;;;;;;;;4995225;28;20470;-72
2024/01/10 17:24:01;;;;;;;68.57;25.73;;;;;;;;;;4995649;28;20763;-72
2024/01/10 17:26:27;;;;;;;62.50;25.23;;;;;;;;;;4996435;28;20418;-72
2024/01/10 17:28:54;;;;;;;64.23;25.30;;;;;;;;;;4999987;28;20524;-70
2024/01/10 17:31:20;;;;;;;79.23;26.03;;;;;;;;;;4998447;28;20466;-73
2024/01/10 17:33:46;;;;;;;68.27;28.47;;;;;;;;;;4998746;28;20407;-72
2024/01/10 17:36:12;;;;;;;67.60;25.83;;;;;;;;;;4996467;28;20418;-72
2024/01/10 17:38:38;;;;;;;72.43;31.43;;;;;;;;;;4996421;28;20786;-73
2024/01/10 17:41:04;;;;;;;69.83;26.87;;;;;;;;;;4996116;28;20490;-72
2024/01/10 17:43:30;;;;;;;68.30;27.13;;;;;;;;;;4998592;28;20925;-73
2024/01/10 17:45:56;;;;;;;66.97;26.70;;;;;;;;;;4995312;28;20416;-71
2024/01/10 17:48:22;;;;;;;68.47;29.17;;;;;;;;;;4995322;28;20872;-69
2024/01/10 17:50:48;;;;;;;69.20;27.40;;;;;;;;;;4995211;28;20623;-74
2024/01/10 17:53:14;;;;;;;61.67;26.77;;;;;;;;;;4995503;28;20493;-72
2024/01/10 17:55:40;;;;;;;64.87;28.87;;;;;;;;;;4994712;28;20418;-73
2024/01/10 17:58:06;;;;;;;62.50;25.10;;;;;;;;;;4995212;28;20431;-73
2024/01/10 18:00:32;;;;;;;71.53;26.90;;;;;;;;;;4988336;28;20511;-74
2024/01/10 18:02:59;;;;;;;68.30;29.07;;;;;;;;;;4975749;28;20408;-75
2024/01/10 18:05:25;;;;;;;57.57;24.73;;;;;;;;;;4989747;28;20581;-73
2024/01/10 18:07:51;;;;;;;74.00;27.00;;;;;;;;;;4994556;28;20914;-73
2024/01/10 18:10:18;;;;;;;69.70;26.30;;;;;;;;;;4994731;28;20420;-74
2024/01/10 18:12:44;;;;;;;69.67;26.57;;;;;;;;;;5013825;23;21062;-76
2024/01/10 18:15:10;;;;;;;77.70;26.47;;;;;;;;;;4976336;28;20442;-76
2024/01/10 18:17:36;;;;;;;66.23;26.50;;;;;;;;;;4976522;28;20547;-76
2024/01/10 18:20:02;;;;;;;55.23;25.17;;;;;;;;;;4975769;28;20405;-76
2024/01/10 18:22:28;;;;;;;73.03;26.53;;;;;;;;;;4974037;28;20443;-75
2024/01/10 18:24:54;;;;;;;63.53;26.67;;;;;;;;;;4975464;28;20416;-72
2024/01/10 18:27:20;;;;;;;69.03;25.30;;;;;;;;;;4980858;28;20427;-72
2024/01/10 18:29:46;;;;;;;73.90;27.27;;;;;;;;;;4967154;28;20419;-75
2024/01/10 18:32:12;;;;;;;67.47;28.60;;;;;;;;;;4959824;28;20415;-76
2024/01/10 18:34:38;;;;;;;69.10;28.00;;;;;;;;;;4956011;28;20432;-74
2024/01/10 18:37:04;;;;;;;72.73;26.93;;;;;;;;;;4956377;28;20416;-75
2024/01/10 18:39:30;;;;;;;68.70;27.30;;;;;;;;;;4954787;28;20428;-74
2024/01/10 18:41:56;;;;;;;73.43;26.70;;;;;;;;;;4956241;28;20973;-72
2024/01/10 18:44:22;;;;;;;64.13;24.97;;;;;;;;;;4954588;28;20462;-74
2024/01/10 18:46:51;;;;;;;86.63;29.93;;;;;;;;;;4956008;28;20533;-74
2024/01/10 18:49:17;;;;;;;61.23;25.80;;;;;;;;;;4956119;28;20521;-73
2024/01/10 18:51:43;;;;;;;64.33;25.53;;;;;;;;;;4972930;28;20424;-78
2024/01/10 18:54:09;;;;;;;67.37;26.80;;;;;;;;;;4975518;28;20781;-73
2024/01/10 18:56:35;;;;;;;63.27;26.33;;;;;;;;;;4975178;28;20764;-73
2024/01/10 18:59:01;;;;;;;63.83;27.43;;;;;;;;;;4975112;28;20521;-73
2024/01/10 19:01:27;;;;;;;81.60;28.40;;;;;;;;;;4972766;28;20790;-74
2024/01/10 19:03:53;;;;;;;80.57;30.23;;;;;;;;;;4967121;28;20459;-74
2024/01/10 19:06:19;;;;;;;70.83;27.40;;;;;;;;;;4973372;28;20890;-75
2024/01/10 19:08:44;;;;;;;70.87;26.53;;;;;;;;;;4974757;28;20514;-76
2024/01/10 19:11:10;;;;;;;70.80;26.77;;;;;;;;;;4974745;28;20428;-75
2024/01/10 19:13:39;;;;;;;72.07;25.50;;;;;;;;;;4974470;28;20459;-77
2024/01/10 19:16:12;;;;;;;63.83;26.47;;;;;;;;;;4966390;28;20435;-73
2024/01/10 19:18:38;;;;;;;71.07;27.40;;;;;;;;;;4973396;28;20432;-73
2024/01/10 19:21:05;;;;;;;81.90;28.83;;;;;;;;;;4974236;28;20538;-75
2024/01/10 19:23:31;;;;;;;68.20;27.87;;;;;;;;;;4973579;28;20955;-75
2024/01/10 19:25:58;;;;;;;76.87;27.50;;;;;;;;;;4983082;28;20455;-75
2024/01/10 19:28:24;;;;;;;68.53;28.90;;;;;;;;;;4969230;28;20422;-75
2024/01/10 19:30:51;;;;;;;65.03;29.20;;;;;;;;;;4980912;28;20527;-75
2024/01/10 19:33:17;;;;;;;69.80;28.10;;;;;;;;;;4973907;28;20447;-73
2024/01/10 19:35:43;;;;;;;65.30;27.40;;;;;;;;;;4967707;28;20427;-75
2024/01/10 19:38:09;;;;;;;82.23;27.77;;;;;;;;;;4980046;28;20424;-75
2024/01/10 19:40:38;;;;;;;76.00;27.63;;;;;;;;;;4983550;28;20566;-73
2024/01/10 19:43:04;;;;;;;74.30;27.23;;;;;;;;;;4979812;28;20455;-73
2024/01/10 19:45:30;;;;;;;61.43;26.53;;;;;;;;;;4980065;28;20431;-73
2024/01/10 19:47:56;;;;;;;58.63;25.57;;;;;;;;;;4984601;28;20420;-73
2024/01/10 19:50:22;;;;;;;62.63;26.30;;;;;;;;;;4986929;28;20432;-75
2024/01/10 19:52:48;;;;;;;58.73;26.50;;;;;;;;;;4974994;28;20436;-73
2024/01/10 19:55:14;;;;;;;84.20;33.20;;;;;;;;;;4973613;28;20482;-73
2024/01/10 19:57:40;;;;;;;81.10;30.90;;;;;;;;;;4974279;28;20428;-75
2024/01/10 20:00:07;;;;;;;79.47;31.07;;;;;;;;;;4983325;28;20491;-74
2024/01/10 20:02:34;;;;;;;88.13;32.77;;;;;;;;;;4984101;28;20428;-74
2024/01/10 20:05:00;;;;;;;81.33;31.10;;;;;;;;;;4973915;28;20419;-74
2024/01/10 20:07:26;;;;;;;64.33;29.33;;;;;;;;;;4973427;28;20412;-73
2024/01/10 20:09:52;;;;;;;85.10;31.00;;;;;;;;;;4973163;28;20925;-73
2024/01/10 20:12:20;;;;;;;72.93;29.23;;;;;;;;;;4973517;28;20902;-72
2024/01/10 20:14:46;;;;;;;78.30;29.53;;;;;;;;;;4975393;28;20974;-71